createdAt,value
2023-10-29T00:00:47.597Z,93.80
2023-10-29T00:03:26.446Z,93.69
2023-10-29T00:06:07.814Z,93.51
2023-10-29T00:08:46.712Z,94.21
2023-10-29T00:11:26.233Z,93.11
2023-10-29T00:14:05.594Z,93.05
2023-10-29T00:16:45.625Z,92.96
2023-10-29T00:19:24.629Z,93.44
2023-10-29T00:22:03.492Z,93.49
2023-10-29T00:24:42.862Z,93.50
2023-10-29T00:27:29.172Z,93.16
2023-10-29T00:32:53.850Z,92.90
2023-10-29T00:35:40.850Z,92.56
2023-10-29T00:38:23.840Z,92.37
2023-10-29T00:41:06.571Z,92.30
2023-10-29T00:43:51.333Z,92.08
2023-10-29T00:49:36.012Z,91.82
2023-10-29T01:54:14.270Z,90.85
2023-10-29T01:56:56.044Z,92.28
2023-10-29T01:59:37.341Z,91.86
2023-10-29T02:02:21.339Z,91.65
2023-10-29T02:05:00.393Z,91.24
2023-10-29T02:07:39.623Z,91.03
2023-10-29T02:10:18.840Z,90.64
2023-10-29T02:12:57.820Z,90.42
2023-10-29T02:15:37.223Z,91.79
2023-10-29T02:18:16.326Z,91.97
2023-10-29T02:20:55.023Z,91.76
2023-10-29T02:23:35.986Z,90.85
2023-10-29T02:26:15.135Z,90.48
2023-10-29T02:28:54.670Z,89.15
2023-10-29T02:31:33.738Z,88.77
2023-10-29T02:34:16.943Z,88.68
2023-10-29T02:36:58.191Z,88.77
2023-10-29T02:39:38.060Z,88.00
2023-10-29T02:42:18.599Z,88.41
2023-10-29T02:45:00.401Z,88.12
2023-10-29T02:47:42.064Z,88.16
2023-10-29T02:50:28.992Z,88.06
2023-10-29T02:53:16.801Z,86.67
2023-10-29T02:56:05.859Z,86.71
2023-10-29T02:58:53.014Z,86.60
2023-10-29T03:01:34.285Z,86.43
2023-10-29T03:07:49.944Z,85.69
2023-10-29T04:55:08.970Z,79.80
2023-10-29T04:58:19.923Z,79.63
2023-10-29T05:01:10.892Z,79.19
2023-10-29T05:09:33.778Z,78.67
2023-10-29T05:18:11.763Z,79.18
2023-10-29T05:21:32.020Z,79.59
2023-10-29T05:24:00.860Z,80.07
2023-10-29T05:29:47.186Z,80.57
2023-10-29T05:32:17.524Z,81.50
2023-10-29T05:35:23.296Z,81.50
2023-10-29T05:41:08.838Z,81.35
2023-10-29T05:43:54.618Z,81.90
2023-10-29T05:46:43.621Z,81.98
2023-10-29T05:55:38.212Z,82.95
2023-10-29T05:58:26.114Z,82.88
2023-10-29T06:01:14.577Z,83.22
2023-10-29T06:04:03.017Z,82.67
2023-10-29T06:09:27.595Z,82.61
2023-10-29T06:12:10.059Z,82.24
2023-10-29T06:14:49.869Z,82.05
2023-10-29T06:17:32.422Z,81.86
2023-10-29T06:20:13.408Z,81.79
2023-10-29T06:22:52.619Z,81.96
2023-10-29T06:25:35.347Z,81.57
2023-10-29T06:28:14.462Z,81.54
2023-10-29T06:30:54.364Z,81.98
2023-10-29T06:33:33.244Z,82.16
2023-10-29T06:36:12.076Z,81.93
2023-10-29T06:38:52.740Z,81.86
2023-10-29T06:41:29.536Z,81.57
2023-10-29T06:44:08.385Z,81.15
2023-10-29T06:46:49.982Z,80.79
2023-10-29T06:49:30.502Z,81.05
2023-10-29T06:52:10.442Z,80.93
2023-10-29T06:54:49.560Z,80.53
2023-10-29T06:57:29.393Z,81.03
2023-10-29T07:00:09.988Z,80.71
2023-10-29T07:02:48.742Z,81.62
2023-10-29T07:05:27.410Z,81.70
2023-10-29T07:08:10.152Z,82.34
2023-10-29T07:10:48.976Z,82.04
2023-10-29T07:13:27.959Z,82.25
2023-10-29T07:16:07.017Z,81.90
2023-10-29T07:18:45.890Z,81.99
2023-10-29T07:21:24.530Z,82.01
2023-10-29T07:24:05.689Z,81.32
2023-10-29T07:26:47.009Z,81.44
2023-10-29T07:29:25.767Z,81.52
2023-10-29T07:32:05.160Z,81.66
2023-10-29T07:34:43.914Z,81.76
2023-10-29T07:37:22.581Z,81.68
2023-10-29T07:39:58.133Z,81.92
2023-10-29T07:42:39.987Z,81.45
2023-10-29T07:45:21.686Z,81.93
2023-10-29T07:48:00.471Z,82.10
2023-10-29T07:50:39.028Z,82.13
2023-10-29T07:53:21.858Z,82.41
2023-10-29T07:56:11.797Z,82.92
2023-10-29T07:58:50.748Z,83.32
2023-10-29T08:01:29.700Z,82.46
2023-10-29T08:04:09.455Z,81.25
2023-10-29T08:06:48.272Z,81.31
2023-10-29T08:09:26.937Z,81.15
2023-10-29T08:12:06.247Z,81.80
2023-10-29T08:14:44.777Z,80.96
2023-10-29T08:17:23.377Z,79.75
2023-10-29T08:20:02.125Z,79.79
2023-10-29T08:22:45.785Z,79.77
2023-10-29T08:25:22.034Z,79.63
2023-10-29T08:28:00.652Z,78.42
2023-10-29T08:30:39.371Z,79.09
2023-10-29T08:33:26.285Z,78.39
2023-10-29T08:36:05.156Z,78.62
2023-10-29T08:38:43.874Z,78.86
2023-10-29T08:41:22.596Z,78.67
2023-10-29T08:44:01.140Z,78.48
2023-10-29T08:46:39.807Z,79.11
2023-10-29T08:49:18.431Z,82.14
2023-10-29T08:51:57.026Z,81.68
2023-10-29T08:54:35.629Z,81.21
2023-10-29T08:57:14.449Z,82.12
2023-10-29T08:59:53.137Z,81.78
2023-10-29T09:02:32.186Z,79.83
2023-10-29T09:05:11.544Z,79.62
2023-10-29T09:07:50.117Z,78.58
2023-10-29T09:10:31.241Z,79.91
2023-10-29T09:13:09.750Z,79.53
2023-10-29T09:15:50.368Z,78.78
2023-10-29T09:18:30.359Z,78.31
2023-10-29T09:21:08.796Z,77.89
2023-10-29T09:23:47.523Z,77.87
2023-10-29T09:26:25.863Z,77.97
2023-10-29T09:29:04.752Z,77.29
2023-10-29T09:31:43.933Z,76.88
2023-10-29T09:34:22.681Z,76.98
2023-10-29T09:37:01.546Z,76.03
2023-10-29T09:39:40.126Z,75.76
2023-10-29T09:42:25.770Z,75.41
2023-10-29T09:45:09.235Z,75.79
2023-10-29T09:47:47.960Z,75.11
2023-10-29T09:50:26.850Z,75.00
2023-10-29T09:53:07.347Z,74.24
2023-10-29T09:55:46.358Z,73.85
2023-10-29T09:58:26.290Z,73.66
2023-10-29T10:01:05.792Z,74.16
2023-10-29T10:03:44.474Z,73.83
2023-10-29T10:06:23.469Z,73.23
2023-10-29T10:09:02.129Z,73.72
2023-10-29T10:11:40.692Z,73.20
2023-10-29T10:14:28.463Z,72.95
2023-10-29T10:17:14.330Z,72.02
2023-10-29T10:20:08.650Z,71.32
2023-10-29T10:22:57.095Z,71.18
2023-10-29T10:25:37.670Z,70.70
2023-10-29T10:28:16.357Z,71.44
2023-10-29T10:30:55.002Z,71.60
2023-10-29T10:33:33.644Z,70.98
2023-10-29T10:36:12.221Z,70.78
2023-10-29T10:38:54.297Z,70.88
2023-10-29T10:41:45.462Z,70.70
2023-10-29T10:44:24.212Z,69.06
2023-10-29T10:47:04.993Z,69.71
2023-10-29T10:49:45.806Z,68.60
2023-10-29T10:52:24.933Z,69.19
2023-10-29T10:55:05.297Z,68.87
2023-10-29T10:57:46.229Z,68.77
2023-10-29T11:00:24.928Z,69.00
2023-10-29T11:03:17.124Z,69.50
2023-10-29T11:05:48.247Z,69.95
2023-10-29T11:08:27.754Z,70.13
2023-10-29T11:11:08.330Z,70.27
2023-10-29T11:13:47.078Z,69.75
2023-10-29T11:16:26.561Z,70.41
2023-10-29T11:19:50.591Z,70.05
2023-10-29T11:22:49.852Z,70.38
2023-10-29T11:25:32.039Z,70.13
2023-10-29T11:28:35.425Z,70.59
2023-10-29T11:31:19.964Z,70.97
2023-10-29T11:33:58.544Z,70.06
2023-10-29T11:36:39.608Z,70.92
2023-10-29T11:39:19.452Z,71.53
2023-10-29T11:42:01.088Z,71.12
2023-10-29T11:44:39.386Z,70.21
2023-10-29T11:47:18.005Z,71.42
2023-10-29T11:49:56.528Z,70.74
2023-10-29T11:52:45.021Z,71.30
2023-10-29T11:55:35.467Z,71.47
2023-10-29T11:58:14.138Z,70.95
2023-10-29T12:00:53.443Z,71.05
2023-10-29T12:03:32.412Z,71.29
2023-10-29T12:06:10.872Z,71.77
2023-10-29T12:08:49.584Z,71.51
2023-10-29T12:11:28.342Z,71.27
2023-10-29T12:14:06.925Z,71.08
2023-10-29T12:16:45.669Z,68.68
2023-10-29T12:19:37.623Z,70.12
2023-10-29T12:22:26.861Z,71.19
2023-10-29T12:27:46.711Z,71.24
2023-10-29T12:30:51.312Z,71.49
2023-10-29T12:33:34.654Z,72.00
2023-10-29T12:36:17.489Z,71.88
2023-10-29T12:38:56.581Z,71.73
2023-10-29T12:41:35.242Z,71.98
2023-10-29T12:44:19.829Z,71.77
2023-10-29T12:47:00.942Z,72.18
2023-10-29T12:49:40.064Z,73.27
2023-10-29T12:52:20.261Z,72.96
2023-10-29T12:55:00.489Z,73.41
2023-10-29T12:57:40.301Z,73.47
2023-10-29T13:00:19.180Z,72.78
2023-10-29T13:02:59.872Z,73.14
2023-10-29T13:05:39.039Z,72.79
2023-10-29T13:08:18.722Z,72.27
2023-10-29T13:10:58.677Z,72.71
2023-10-29T13:13:37.523Z,73.45
2023-10-29T13:16:16.025Z,73.63
2023-10-29T13:18:55.689Z,73.47
2023-10-29T13:21:34.668Z,75.40
2023-10-29T13:24:13.515Z,76.66
2023-10-29T13:26:53.998Z,80.22
2023-10-29T13:29:35.255Z,81.60
2023-10-29T13:32:13.820Z,81.76
2023-10-29T13:35:02.552Z,82.10
2023-10-29T13:37:44.612Z,81.75
2023-10-29T13:40:23.317Z,80.35
2023-10-29T13:43:05.656Z,80.93
2023-10-29T13:45:44.905Z,80.42
2023-10-29T13:48:23.751Z,80.57
2023-10-29T13:51:12.142Z,80.55
2023-10-29T13:53:51.503Z,80.04
2023-10-29T13:56:32.024Z,80.09
2023-10-29T13:59:10.931Z,81.58
2023-10-29T14:01:49.535Z,84.21
2023-10-29T14:04:28.202Z,85.51
2023-10-29T14:07:06.740Z,87.10
2023-10-29T14:09:45.661Z,88.29
2023-10-29T14:12:24.326Z,89.80
2023-10-29T14:15:03.314Z,90.90
2023-10-29T14:17:42.041Z,92.26
2023-10-29T14:20:20.648Z,94.30
2023-10-29T14:22:59.640Z,91.93
2023-10-29T14:25:38.271Z,91.73
2023-10-29T14:28:16.886Z,91.73
2023-10-29T14:30:55.677Z,90.41
2023-10-29T14:33:34.844Z,89.97
2023-10-29T14:36:14.392Z,90.33
2023-10-29T14:39:00.987Z,88.49
2023-10-29T14:41:39.530Z,88.16
2023-10-29T14:44:18.256Z,87.91
2023-10-29T14:46:56.973Z,86.81
2023-10-29T14:49:35.562Z,86.01
2023-10-29T14:52:14.153Z,84.99
2023-10-29T14:54:52.839Z,85.58
2023-10-29T14:57:31.428Z,84.98
2023-10-29T15:02:51.205Z,85.72
2023-10-29T15:05:36.844Z,85.52
2023-10-29T15:08:15.393Z,85.17
2023-10-29T15:10:55.118Z,85.15
2023-10-29T15:13:33.744Z,85.22
2023-10-29T15:16:12.502Z,84.82
2023-10-29T15:18:51.890Z,85.05
2023-10-29T15:21:30.465Z,84.83
2023-10-29T15:24:09.489Z,85.40
2023-10-29T15:26:48.129Z,86.47
2023-10-29T15:29:26.741Z,87.52
2023-10-29T15:32:05.513Z,87.74
2023-10-29T15:34:44.171Z,87.51
2023-10-29T15:37:24.561Z,87.59
2023-10-29T15:40:11.121Z,87.79
2023-10-29T15:42:49.734Z,88.10
2023-10-29T15:45:28.578Z,88.91
2023-10-29T15:48:07.346Z,89.19
2023-10-29T15:50:55.691Z,89.57
2023-10-29T15:53:33.880Z,89.76
2023-10-29T15:56:12.883Z,89.68
2023-10-29T15:58:51.569Z,90.29
2023-10-29T16:01:34.204Z,90.36
2023-10-29T16:04:12.730Z,90.39
2023-10-29T16:06:51.218Z,90.69
2023-10-29T16:09:30.099Z,90.83
2023-10-29T16:12:10.150Z,90.81
2023-10-29T16:14:48.963Z,90.56
2023-10-29T16:17:27.447Z,90.48
2023-10-29T16:20:07.281Z,91.00
2023-10-29T16:22:45.909Z,90.72
2023-10-29T16:25:24.551Z,90.91
2023-10-29T16:28:03.188Z,90.58
2023-10-29T16:30:41.812Z,90.83
2023-10-29T16:33:20.590Z,91.34
2023-10-29T16:35:59.751Z,90.80
2023-10-29T16:38:38.335Z,90.80
2023-10-29T16:41:18.032Z,91.18
2023-10-29T16:43:56.616Z,90.87
2023-10-29T16:46:35.369Z,91.01
2023-10-29T16:49:13.913Z,90.95
2023-10-29T16:51:56.176Z,91.32
2023-10-29T16:54:34.814Z,90.91
2023-10-29T16:57:13.985Z,91.12
2023-10-29T16:59:52.553Z,90.63
2023-10-29T17:02:31.130Z,90.75
2023-10-29T17:05:09.673Z,90.77
2023-10-29T17:07:49.532Z,91.81
2023-10-29T17:10:27.044Z,91.89
2023-10-29T17:13:05.648Z,90.46
2023-10-29T17:15:44.413Z,92.13
2023-10-29T17:18:23.065Z,93.49
2023-10-29T17:21:03.621Z,95.17
2023-10-29T17:23:41.883Z,96.07
2023-10-29T17:26:22.038Z,99.62
2023-10-29T17:29:01.940Z,98.87
2023-10-29T17:31:39.374Z,97.89
2023-10-29T17:34:18.052Z,96.67
2023-10-29T17:36:56.794Z,96.30
2023-10-29T17:39:35.514Z,94.53
2023-10-29T17:42:14.162Z,93.81
2023-10-29T17:44:52.805Z,93.39
2023-10-29T17:47:39.428Z,92.65
2023-10-29T17:50:18.087Z,92.65
2023-10-29T17:52:56.669Z,92.51
2023-10-29T17:55:35.362Z,92.18
2023-10-29T17:58:13.924Z,90.98
2023-10-29T18:00:52.587Z,90.37
2023-10-29T18:03:32.232Z,90.40
2023-10-29T18:06:20.424Z,89.62
2023-10-29T18:08:57.663Z,89.40
2023-10-29T18:11:36.211Z,93.04
2023-10-29T18:14:14.908Z,95.15
2023-10-29T18:16:53.730Z,94.57
2023-10-29T18:19:32.318Z,94.04
2023-10-29T18:22:10.892Z,91.46
2023-10-29T18:24:49.807Z,90.16
2023-10-29T18:27:28.216Z,88.16
2023-10-29T18:30:09.226Z,87.48
2023-10-29T18:32:54.263Z,85.40
2023-10-29T18:35:32.836Z,84.22
2023-10-29T18:38:11.560Z,84.74
2023-10-29T18:40:50.396Z,84.59
2023-10-29T18:43:29.207Z,84.68
2023-10-29T18:46:16.266Z,84.95
2023-10-29T18:48:54.846Z,84.76
2023-10-29T18:51:33.512Z,85.21
2023-10-29T18:54:12.168Z,85.92
2023-10-29T18:56:50.809Z,85.65
2023-10-29T18:59:29.616Z,85.66
2023-10-29T19:02:08.277Z,85.58
2023-10-29T19:04:47.897Z,85.91
2023-10-29T19:07:27.346Z,86.13
2023-10-29T19:10:06.355Z,86.08
2023-10-29T19:12:45.039Z,85.99
2023-10-29T19:15:23.727Z,86.26
2023-10-29T19:18:02.960Z,86.14
2023-10-29T19:20:43.685Z,86.31
2023-10-29T19:23:22.332Z,84.97
2023-10-29T19:26:04.005Z,85.41
2023-10-29T19:28:42.981Z,85.28
2023-10-29T19:31:26.804Z,85.54
2023-10-29T19:34:01.563Z,85.56
2023-10-29T19:36:40.196Z,85.21
2023-10-29T19:39:19.090Z,84.41
2023-10-29T19:41:57.705Z,84.25
2023-10-29T19:44:36.337Z,84.23
2023-10-29T19:47:15.198Z,84.14
2023-10-29T19:49:53.779Z,83.78
2023-10-29T19:52:33.031Z,84.16
2023-10-29T19:55:14.657Z,84.32
2023-10-29T19:57:53.339Z,83.84
2023-10-29T20:00:32.014Z,84.12
2023-10-29T20:03:12.676Z,84.06
2023-10-29T20:05:54.896Z,84.16
2023-10-29T20:08:34.084Z,84.29
2023-10-29T20:11:15.533Z,83.97
2023-10-29T20:13:54.154Z,84.46
2023-10-29T20:16:34.789Z,84.28
2023-10-29T20:19:13.395Z,83.78
2023-10-29T20:21:52.015Z,83.81
2023-10-29T20:24:30.874Z,83.64
2023-10-29T20:27:10.844Z,83.78
2023-10-29T20:29:49.773Z,83.88
2023-10-29T20:32:28.147Z,84.37
2023-10-29T20:35:07.624Z,84.19
2023-10-29T20:37:46.564Z,83.99
2023-10-29T20:40:27.583Z,84.26
2023-10-29T20:43:03.613Z,84.00
2023-10-29T20:45:42.267Z,83.62
2023-10-29T20:48:22.542Z,83.79
2023-10-29T20:51:02.372Z,83.74
2023-10-29T20:53:40.749Z,83.57
2023-10-29T20:56:20.533Z,83.47
2023-10-29T20:58:59.126Z,83.45
2023-10-29T21:01:37.832Z,83.58
2023-10-29T21:04:16.441Z,83.27
2023-10-29T21:06:55.032Z,83.62
2023-10-29T21:09:33.789Z,83.22
2023-10-29T21:12:12.558Z,83.23
2023-10-29T21:14:51.213Z,82.85
2023-10-29T21:17:29.725Z,83.02
2023-10-29T21:22:50.188Z,83.09
2023-10-29T21:25:28.811Z,83.14
2023-10-29T21:28:07.576Z,83.10
2023-10-29T21:30:46.190Z,83.15
2023-10-29T21:33:24.857Z,82.89
2023-10-29T21:36:10.275Z,83.31
2023-10-29T21:38:48.759Z,83.26
2023-10-29T21:41:29.773Z,83.30
2023-10-29T21:44:08.464Z,82.76
2023-10-29T21:46:48.399Z,82.62
2023-10-29T21:49:26.990Z,82.62
2023-10-29T21:52:05.828Z,82.65
2023-10-29T21:54:49.817Z,82.55
2023-10-29T21:57:28.436Z,82.91
2023-10-29T22:00:08.154Z,82.72
2023-10-29T22:02:47.025Z,83.07
2023-10-29T22:05:25.578Z,83.19
2023-10-29T22:08:05.573Z,83.50
2023-10-29T22:10:44.117Z,83.65
2023-10-29T22:13:25.489Z,83.96
2023-10-29T22:16:07.697Z,83.73
2023-10-29T22:18:46.282Z,84.19
2023-10-29T22:21:24.948Z,84.12
2023-10-29T22:24:03.629Z,84.08
2023-10-29T22:26:42.368Z,84.09
2023-10-29T22:29:21.031Z,84.30
2023-10-29T22:31:59.676Z,84.48
2023-10-29T22:34:38.319Z,84.78
2023-10-29T22:37:16.960Z,84.76
2023-10-29T22:39:55.732Z,85.06
2023-10-29T22:42:34.413Z,84.71
2023-10-29T22:45:13.013Z,84.61
2023-10-29T22:47:51.741Z,85.26
2023-10-29T22:50:30.399Z,85.44
2023-10-29T22:53:09.017Z,85.48
2023-10-29T22:55:47.709Z,85.97
2023-10-29T22:58:27.899Z,86.01
2023-10-29T23:01:09.345Z,86.37
2023-10-29T23:03:48.297Z,86.35
2023-10-29T23:06:30.155Z,86.61
2023-10-29T23:09:09.657Z,86.84
2023-10-29T23:11:48.257Z,86.71
2023-10-29T23:14:27.111Z,87.20
2023-10-29T23:17:05.780Z,87.20
2023-10-29T23:19:45.143Z,87.48
2023-10-29T23:22:23.726Z,87.64
2023-10-29T23:25:03.722Z,87.51
2023-10-29T23:27:41.613Z,87.88
2023-10-29T23:30:20.232Z,87.65
2023-10-29T23:33:02.032Z,88.06
2023-10-29T23:35:43.215Z,87.98
2023-10-29T23:38:21.971Z,88.36
2023-10-29T23:41:00.563Z,88.54
2023-10-29T23:43:39.174Z,88.89
2023-10-29T23:46:17.775Z,88.98
2023-10-29T23:48:56.447Z,89.27
2023-10-29T23:51:35.559Z,89.05
2023-10-29T23:54:14.194Z,88.67
2023-10-29T23:56:52.740Z,88.74
2023-10-29T23:59:31.311Z,88.71
